Manson, North Carolina
Current Conditions -  °F | °C
As of 5:15 PM on Saturday 25 Oct 2014 (Local Time) from KHNZ Reporting Station
Clear Clear  
Wind Chill: 67°   Ceiling: Unl
Heat Index: 67°   Visibility: 10mi
Dew Point: 40°   Wind: 7mph
Humidity: 36%   Direction: 240°WSW
Pressure: 29.89"   Gusts: NA
Location:  36.42°N, 78.28°W
Report Text: KHNZ 252115Z AUTO 24006KT 10SM CLR 20/04 A2989 RMK AO2 T01970043
Loading
Personal Weather Stations






























Interactive Weather Map
Tropical Storm Tracking
New forecast layout! Learn more

10-Day Weather Forecast

Advertisements
Track Severe Weather on mobile